Terminal Aerodrome Forecast
Issued by NWS Louisville, KY

Home | Current Version | Previous Version | Text Only | Print | Product List | Glossary On
Versions: 1 2 3 4 5 6 7 8 9 10 11 12 13 14 15 16 17
000
FTUS43 KLMK 181700
TAFLEX
TAF
KLEX 181725Z 1818/1918 31010KT P6SM VCSH BKN035
     FM190200 33004KT P6SM BKN035
     FM191300 VRB03KT P6SM FEW030=

USA.gov is the U.S. government's official web portal to all federal, state and local government web resources and services.